createdAt,value
2023-01-28T00:00:38.661Z,3.67
2023-01-28T00:01:40.859Z,3.95
2023-01-28T00:02:43.831Z,3.63
2023-01-28T00:03:49.183Z,3.67
2023-01-28T00:04:53.499Z,2.92
2023-01-28T00:06:03.083Z,3.70
2023-01-28T00:07:05.982Z,4.03
2023-01-28T00:08:08.037Z,3.85
2023-01-28T00:09:10.985Z,3.72
2023-01-28T00:10:12.957Z,3.58
2023-01-28T00:11:16.003Z,3.58
2023-01-28T00:12:17.963Z,3.63
2023-01-28T00:13:21.039Z,3.75
2023-01-28T00:14:22.958Z,4.20
2023-01-28T00:15:25.963Z,3.80
2023-01-28T00:16:28.111Z,3.75
2023-01-28T00:17:31.056Z,4.30
2023-01-28T00:18:33.685Z,4.30
2023-01-28T00:19:36.639Z,4.32
2023-01-28T00:20:39.909Z,3.70
2023-01-28T00:21:43.081Z,4.03
2023-01-28T00:22:48.028Z,4.13
2023-01-28T00:23:54.218Z,4.35
2023-01-28T00:24:56.192Z,4.50
2023-01-28T00:25:59.893Z,4.40
2023-01-28T00:27:01.835Z,3.67
2023-01-28T00:28:04.851Z,3.72
2023-01-28T00:29:07.006Z,3.70
2023-01-28T00:30:12.573Z,3.50
2023-01-28T00:31:17.257Z,3.47
2023-01-28T00:32:20.228Z,4.00
2023-01-28T00:33:22.276Z,3.75
2023-01-28T00:34:25.223Z,4.05
2023-01-28T00:35:27.184Z,4.60
2023-01-28T00:36:31.491Z,3.80
2023-01-28T00:37:33.463Z,4.90
2023-01-28T00:38:36.444Z,4.40
2023-01-28T00:39:38.333Z,4.07
2023-01-28T00:40:41.285Z,3.90
2023-01-28T00:41:43.220Z,3.72
2023-01-28T00:42:46.236Z,4.15
2023-01-28T00:43:49.122Z,3.97
2023-01-28T00:44:52.047Z,4.80
2023-01-28T00:45:53.979Z,4.25
2023-01-28T00:46:57.170Z,4.75
2023-01-28T00:47:59.096Z,4.55
2023-01-28T00:49:02.082Z,4.22
2023-01-28T00:50:05.200Z,5.05
2023-01-28T00:51:08.939Z,4.88
2023-01-28T00:52:12.258Z,4.75
2023-01-28T00:53:15.217Z,4.45
2023-01-28T00:54:17.290Z,4.80
2023-01-28T00:55:21.736Z,4.40
2023-01-28T00:56:23.689Z,3.88
2023-01-28T00:57:26.630Z,4.68
2023-01-28T00:58:28.555Z,4.55
2023-01-28T00:59:31.429Z,4.72
2023-01-28T01:00:33.401Z,4.65
2023-01-28T01:01:36.420Z,3.95
2023-01-28T01:02:40.940Z,4.90
2023-01-28T01:03:44.956Z,4.75
2023-01-28T01:04:54.894Z,3.95
2023-01-28T01:05:57.950Z,5.20
2023-01-28T01:07:00.904Z,4.50
2023-01-28T01:08:04.782Z,4.57
2023-01-28T01:09:09.386Z,5.05
2023-01-28T01:10:13.037Z,4.00
2023-01-28T01:11:15.971Z,4.20
2023-01-28T01:12:18.183Z,4.68
2023-01-28T01:13:21.108Z,4.88
2023-01-28T01:14:23.061Z,4.65
2023-01-28T01:15:25.983Z,4.15
2023-01-28T01:16:30.018Z,5.07
2023-01-28T01:17:33.331Z,4.63
2023-01-28T01:18:36.679Z,4.97
2023-01-28T01:19:39.626Z,5.20
2023-01-28T01:20:45.638Z,4.80
2023-01-28T01:21:50.436Z,5.47
2023-01-28T01:22:53.065Z,5.22
2023-01-28T01:23:57.512Z,4.20
2023-01-28T01:24:59.459Z,5.53
2023-01-28T01:26:02.690Z,4.90
2023-01-28T01:27:05.919Z,4.85
2023-01-28T01:28:08.848Z,5.13
2023-01-28T01:29:10.827Z,5.55
2023-01-28T01:30:14.522Z,5.25
2023-01-28T01:31:18.707Z,4.70
2023-01-28T01:32:22.329Z,5.40
2023-01-28T01:33:24.273Z,4.95
2023-01-28T01:34:27.387Z,5.07
2023-01-28T01:35:30.134Z,5.35
2023-01-28T01:36:33.105Z,5.00
2023-01-28T01:37:35.485Z,5.40
2023-01-28T01:38:38.847Z,4.95
2023-01-28T01:39:42.178Z,5.07
2023-01-28T01:40:45.173Z,5.05
2023-01-28T01:41:47.216Z,5.35
2023-01-28T01:42:50.139Z,5.35
2023-01-28T01:43:54.645Z,5.68
2023-01-28T01:45:00.496Z,5.80
2023-01-28T01:46:02.503Z,5.07
2023-01-28T01:47:05.670Z,5.60
2023-01-28T01:48:16.057Z,5.90
2023-01-28T01:49:22.843Z,4.93
2023-01-28T01:50:29.714Z,5.05
2023-01-28T01:51:35.568Z,5.70
2023-01-28T01:52:37.535Z,5.00
2023-01-28T01:53:44.378Z,4.88
2023-01-28T01:54:50.611Z,5.57
2023-01-28T01:55:59.190Z,5.25
2023-01-28T01:57:02.889Z,5.25
2023-01-28T01:58:10.402Z,5.70
2023-01-28T01:59:17.661Z,4.97
2023-01-28T02:00:21.279Z,5.57
2023-01-28T02:01:27.681Z,4.90
2023-01-28T02:02:30.866Z,5.65
2023-01-28T02:03:52.119Z,4.72
2023-01-28T02:04:55.199Z,4.60
2023-01-28T02:05:57.109Z,5.30
2023-01-28T02:07:02.620Z,6.20
2023-01-28T02:08:20.599Z,6.65
2023-01-28T02:09:26.349Z,4.78
2023-01-28T02:10:29.688Z,5.07
2023-01-28T02:11:34.752Z,5.60
2023-01-28T02:12:39.946Z,4.72
2023-01-28T02:13:45.807Z,4.57
2023-01-28T02:14:53.107Z,5.47
2023-01-28T02:15:56.956Z,5.57
2023-01-28T02:17:00.220Z,5.90
2023-01-28T02:18:03.750Z,4.85
2023-01-28T02:19:07.179Z,5.50
2023-01-28T02:20:12.498Z,4.80
2023-01-28T02:21:36.360Z,4.38
2023-01-28T02:23:22.433Z,5.10
2023-01-28T02:24:52.288Z,5.00
2023-01-28T02:26:27.074Z,5.00
2023-01-28T02:27:36.595Z,4.80
2023-01-28T02:28:46.498Z,4.25
2023-01-28T02:29:55.967Z,4.38
2023-01-28T02:31:05.886Z,5.43
2023-01-28T02:32:15.132Z,4.90
2023-01-28T02:33:21.234Z,4.68
2023-01-28T02:34:34.732Z,5.15
2023-01-28T02:35:43.799Z,4.55
2023-01-28T02:36:49.898Z,4.70
2023-01-28T02:37:56.666Z,4.68
2023-01-28T02:39:08.652Z,4.35
2023-01-28T02:40:14.671Z,5.13
2023-01-28T02:41:24.897Z,4.18
2023-01-28T02:42:31.957Z,4.88
2023-01-28T02:43:36.513Z,5.50
2023-01-28T02:44:39.767Z,5.28
2023-01-28T02:45:57.095Z,4.43
2023-01-28T02:47:17.721Z,5.70
2023-01-28T02:48:24.185Z,5.53
2023-01-28T02:49:31.165Z,4.95
2023-01-28T02:50:47.415Z,5.05
2023-01-28T02:52:07.544Z,4.90
2023-01-28T02:53:38.194Z,5.68
2023-01-28T02:54:53.704Z,3.60
2023-01-28T02:56:07.597Z,4.35
2023-01-28T02:57:20.306Z,4.85
2023-01-28T02:58:29.358Z,4.82
2023-01-28T02:59:41.667Z,4.53
2023-01-28T03:00:50.729Z,5.03
2023-01-28T03:01:58.441Z,5.68
2023-01-28T03:03:10.480Z,5.07
2023-01-28T03:04:20.681Z,4.90
2023-01-28T03:05:28.275Z,5.00
2023-01-28T03:06:36.398Z,6.15
2023-01-28T03:07:40.387Z,4.82
2023-01-28T03:09:05.092Z,5.70
2023-01-28T03:10:14.039Z,4.20
2023-01-28T03:11:35.499Z,5.75
2023-01-28T03:12:59.965Z,4.90
2023-01-28T03:14:21.065Z,4.68
2023-01-28T03:15:44.956Z,5.07
2023-01-28T03:17:09.162Z,5.15
2023-01-28T03:18:34.310Z,5.60
2023-01-28T03:19:55.695Z,4.80
2023-01-28T03:21:23.130Z,5.63
2023-01-28T03:22:45.783Z,5.43
2023-01-28T03:24:12.724Z,4.82
2023-01-28T03:25:36.751Z,4.93
2023-01-28T03:27:06.436Z,4.40
2023-01-28T03:28:31.780Z,5.85
2023-01-28T03:29:54.011Z,5.68
2023-01-28T03:31:20.131Z,6.18
2023-01-28T03:32:41.955Z,6.00
2023-01-28T03:34:03.973Z,5.35
2023-01-28T03:35:27.167Z,5.68
2023-01-28T03:36:50.413Z,6.22
2023-01-28T03:37:52.682Z,5.55
2023-01-28T03:38:56.509Z,5.80
2023-01-28T03:40:04.301Z,6.00
2023-01-28T03:41:07.239Z,6.53
2023-01-28T03:42:11.270Z,6.85
2023-01-28T03:43:14.373Z,5.90
2023-01-28T03:44:34.662Z,5.72
2023-01-28T03:45:39.085Z,5.40
2023-01-28T03:46:41.102Z,6.18
2023-01-28T03:47:45.455Z,5.80
2023-01-28T03:48:47.494Z,5.68
2023-01-28T03:49:51.998Z,6.22
2023-01-28T03:50:56.324Z,6.18
2023-01-28T03:51:59.259Z,5.88
2023-01-28T03:53:14.974Z,5.20
2023-01-28T03:54:18.230Z,5.65
2023-01-28T03:55:21.118Z,6.10
2023-01-28T03:56:24.393Z,6.20
2023-01-28T03:57:31.354Z,5.65
2023-01-28T03:58:52.875Z,5.15
2023-01-28T03:59:55.870Z,4.75
2023-01-28T04:00:57.776Z,6.10
2023-01-28T04:02:03.167Z,5.65
2023-01-28T04:03:15.874Z,5.10
2023-01-28T04:04:23.573Z,5.50
2023-01-28T04:05:25.980Z,5.15
2023-01-28T04:06:28.984Z,6.15
2023-01-28T04:07:30.888Z,4.78
2023-01-28T04:08:33.886Z,6.13
2023-01-28T04:09:35.867Z,5.95
2023-01-28T04:10:39.387Z,5.80
2023-01-28T04:11:41.325Z,5.53
2023-01-28T04:12:44.208Z,4.72
2023-01-28T04:13:46.676Z,5.13
2023-01-28T04:14:49.549Z,5.38
2023-01-28T04:15:51.574Z,5.43
2023-01-28T04:16:55.325Z,5.78
2023-01-28T04:17:57.476Z,6.15
2023-01-28T04:19:01.787Z,5.18
2023-01-28T04:20:03.993Z,5.90
2023-01-28T04:21:07.502Z,5.10
2023-01-28T04:22:12.041Z,6.03
2023-01-28T04:23:14.963Z,5.93
2023-01-28T04:24:16.977Z,5.68
2023-01-28T04:25:19.975Z,5.88
2023-01-28T04:26:21.968Z,4.85
2023-01-28T04:27:24.908Z,5.32
2023-01-28T04:28:26.879Z,6.30
2023-01-28T04:29:29.770Z,6.25
2023-01-28T04:30:31.744Z,6.10
2023-01-28T04:31:35.533Z,6.13
2023-01-28T04:32:38.080Z,5.90
2023-01-28T04:33:41.014Z,6.78
2023-01-28T04:34:44.326Z,6.35
2023-01-28T04:35:47.246Z,5.88
2023-01-28T04:36:50.365Z,5.75
2023-01-28T04:37:53.320Z,5.68
2023-01-28T04:38:55.342Z,6.38
2023-01-28T04:39:58.252Z,5.53
2023-01-28T04:41:00.204Z,6.70
2023-01-28T04:42:03.186Z,6.72
2023-01-28T04:43:05.143Z,6.57
2023-01-28T04:44:08.248Z,5.85
2023-01-28T04:45:10.817Z,6.20
2023-01-28T04:46:13.774Z,5.75
2023-01-28T04:47:15.804Z,5.88
2023-01-28T04:48:18.744Z,5.18
2023-01-28T04:49:20.648Z,5.47
2023-01-28T04:50:24.917Z,7.55
2023-01-28T04:51:27.789Z,5.53
2023-01-28T04:52:29.725Z,6.47
2023-01-28T04:53:32.667Z,5.70
2023-01-28T04:54:34.613Z,5.82
2023-01-28T04:55:37.768Z,6.22
2023-01-28T04:56:39.685Z,6.25
2023-01-28T04:57:42.622Z,5.70
2023-01-28T04:58:44.513Z,5.90
2023-01-28T04:59:47.701Z,6.07
2023-01-28T05:00:55.235Z,5.90
2023-01-28T05:01:58.260Z,6.50
2023-01-28T05:03:00.192Z,6.03
2023-01-28T05:04:05.571Z,6.20
2023-01-28T05:05:09.077Z,6.30
2023-01-28T05:06:13.428Z,6.43
2023-01-28T05:07:15.336Z,6.35
2023-01-28T05:08:18.891Z,7.13
2023-01-28T05:09:20.793Z,5.43
2023-01-28T05:10:24.471Z,6.60
2023-01-28T05:11:26.528Z,5.68
2023-01-28T05:12:30.387Z,6.15
2023-01-28T05:13:32.367Z,6.28
2023-01-28T05:14:35.324Z,6.50
2023-01-28T05:15:37.292Z,6.25
2023-01-28T05:16:40.204Z,5.78
2023-01-28T05:17:43.149Z,5.35
2023-01-28T05:18:47.987Z,5.90
2023-01-28T05:19:49.986Z,4.93
2023-01-28T05:20:52.951Z,5.88
2023-01-28T05:21:56.286Z,6.15
2023-01-28T05:22:59.241Z,6.35
2023-01-28T05:24:01.228Z,6.20
2023-01-28T05:25:04.591Z,5.65
2023-01-28T05:26:07.520Z,6.10
2023-01-28T05:27:09.637Z,5.72
2023-01-28T05:28:12.599Z,5.70
2023-01-28T05:29:14.524Z,6.13
2023-01-28T05:30:18.356Z,6.28
2023-01-28T05:31:20.334Z,7.13
2023-01-28T05:32:23.261Z,6.50
2023-01-28T05:33:25.346Z,5.75
2023-01-28T05:34:28.337Z,6.07
2023-01-28T05:35:30.314Z,5.95
2023-01-28T05:36:33.209Z,6.85
2023-01-28T05:37:36.508Z,5.25
2023-01-28T05:38:39.403Z,5.40
2023-01-28T05:39:41.405Z,5.97
2023-01-28T05:40:44.318Z,5.65
2023-01-28T05:41:46.287Z,6.25
2023-01-28T05:42:49.322Z,6.70
2023-01-28T05:43:51.250Z,6.32
2023-01-28T05:44:54.145Z,5.45
2023-01-28T05:45:56.058Z,6.40
2023-01-28T05:46:59.024Z,5.53
2023-01-28T05:48:01.035Z,6.20
2023-01-28T05:49:03.985Z,5.80
2023-01-28T05:50:06.869Z,6.47
2023-01-28T05:51:09.903Z,5.30
2023-01-28T05:52:11.961Z,6.10
2023-01-28T05:53:16.283Z,5.30
2023-01-28T05:54:18.396Z,5.53
2023-01-28T05:55:21.291Z,5.65
2023-01-28T05:56:23.232Z,5.85
2023-01-28T05:57:26.296Z,5.72
2023-01-28T05:58:31.972Z,5.60
2023-01-28T05:59:34.983Z,4.72
2023-01-28T06:00:36.974Z,6.43
2023-01-28T06:01:39.967Z,5.43
2023-01-28T06:02:42.939Z,5.70
2023-01-28T06:03:44.913Z,5.43
2023-01-28T06:04:47.850Z,5.82
2023-01-28T06:05:49.868Z,6.15
2023-01-28T06:06:52.841Z,5.53
2023-01-28T06:07:54.764Z,5.82
2023-01-28T06:08:59.016Z,5.80
2023-01-28T06:10:00.966Z,5.72
2023-01-28T06:11:04.085Z,6.05
2023-01-28T06:12:06.848Z,5.43
2023-01-28T06:13:09.854Z,6.28
2023-01-28T06:14:11.921Z,5.63
2023-01-28T06:15:14.829Z,6.53
2023-01-28T06:16:16.759Z,6.28
2023-01-28T06:17:19.786Z,6.55
2023-01-28T06:18:21.726Z,5.40
2023-01-28T06:19:24.719Z,6.43
2023-01-28T06:20:26.729Z,6.10
2023-01-28T06:21:30.273Z,5.65
2023-01-28T06:22:32.530Z,6.30
2023-01-28T06:23:35.534Z,4.80
2023-01-28T06:24:38.796Z,5.75
2023-01-28T06:25:41.680Z,5.35
2023-01-28T06:26:43.573Z,6.30
2023-01-28T06:27:46.612Z,6.20
2023-01-28T06:28:48.720Z,6.10
2023-01-28T06:29:51.628Z,5.22
2023-01-28T06:30:54.308Z,5.78
2023-01-28T06:31:57.306Z,5.40
2023-01-28T06:32:59.673Z,5.47
2023-01-28T06:34:02.766Z,5.10
2023-01-28T06:35:05.351Z,6.10
2023-01-28T06:36:09.134Z,5.80
2023-01-28T06:37:13.327Z,6.25
2023-01-28T06:38:16.475Z,5.68
2023-01-28T06:39:18.384Z,5.80
2023-01-28T06:40:24.925Z,6.05
2023-01-28T06:41:27.804Z,6.15
2023-01-28T06:42:29.769Z,5.78
2023-01-28T06:43:32.733Z,5.75
2023-01-28T06:44:34.671Z,6.05
2023-01-28T06:45:37.544Z,5.88
2023-01-28T06:46:39.604Z,5.13
2023-01-28T06:47:42.559Z,5.00
2023-01-28T06:48:44.559Z,5.25
2023-01-28T06:49:47.449Z,5.70
2023-01-28T06:50:49.740Z,5.18
2023-01-28T06:51:52.651Z,5.65
2023-01-28T06:52:54.641Z,5.10
2023-01-28T06:53:57.562Z,6.03
2023-01-28T06:54:59.541Z,5.53
2023-01-28T06:56:03.935Z,5.70
2023-01-28T06:57:05.865Z,5.28
2023-01-28T06:58:08.860Z,6.60
2023-01-28T06:59:10.822Z,5.65
2023-01-28T07:00:16.299Z,5.82
2023-01-28T07:01:19.571Z,5.50
2023-01-28T07:02:21.745Z,4.95
2023-01-28T07:03:24.694Z,4.85
2023-01-28T07:04:26.678Z,6.28
2023-01-28T07:05:29.635Z,5.90
2023-01-28T07:06:32.526Z,5.75
2023-01-28T07:07:34.627Z,5.10
2023-01-28T07:08:37.979Z,4.75
2023-01-28T07:09:39.917Z,6.93
2023-01-28T07:10:42.830Z,5.72
2023-01-28T07:11:46.230Z,5.88
2023-01-28T07:12:49.264Z,5.15
2023-01-28T07:13:52.414Z,6.00
2023-01-28T07:14:54.353Z,5.10
2023-01-28T07:15:57.257Z,5.55
2023-01-28T07:16:59.375Z,5.47
2023-01-28T07:18:03.137Z,5.25
2023-01-28T07:19:05.158Z,5.75
2023-01-28T07:20:09.760Z,5.97
2023-01-28T07:21:12.005Z,5.45
2023-01-28T07:22:14.885Z,5.57
2023-01-28T07:23:16.807Z,5.85
2023-01-28T07:24:19.873Z,4.97
2023-01-28T07:25:21.857Z,5.60
2023-01-28T07:26:24.841Z,5.90
2023-01-28T07:27:28.148Z,5.47
2023-01-28T07:28:31.123Z,5.45
2023-01-28T07:29:33.066Z,5.90
2023-01-28T07:30:36.005Z,4.57
2023-01-28T07:31:37.994Z,5.47
2023-01-28T07:32:40.957Z,6.35
2023-01-28T07:33:43.885Z,5.70
2023-01-28T07:34:45.819Z,6.40
2023-01-28T07:35:49.590Z,5.50
2023-01-28T07:36:51.524Z,6.00
2023-01-28T07:37:55.043Z,5.35
2023-01-28T07:38:57.969Z,5.38
2023-01-28T07:39:59.903Z,5.47
2023-01-28T07:41:02.893Z,6.88
2023-01-28T07:42:04.953Z,5.55
2023-01-28T07:43:10.311Z,4.68
2023-01-28T07:44:12.350Z,6.00
2023-01-28T07:45:15.750Z,6.43
2023-01-28T07:46:18.730Z,5.90
2023-01-28T07:47:20.716Z,5.63
2023-01-28T07:48:23.668Z,5.90
2023-01-28T07:49:25.596Z,4.80
2023-01-28T07:50:30.230Z,6.22
2023-01-28T07:51:32.461Z,6.00
2023-01-28T07:52:38.877Z,5.68
2023-01-28T07:53:41.816Z,5.18
2023-01-28T07:54:43.812Z,5.15
2023-01-28T07:55:46.900Z,4.93
2023-01-28T07:56:48.992Z,6.40
2023-01-28T07:57:53.114Z,5.78
2023-01-28T07:58:56.538Z,5.20
2023-01-28T07:59:59.469Z,6.07
2023-01-28T08:01:02.120Z,5.70
2023-01-28T08:02:05.555Z,5.68
2023-01-28T08:03:12.872Z,6.43
2023-01-28T08:04:14.952Z,5.30
2023-01-28T08:05:19.000Z,5.30
2023-01-28T08:06:21.055Z,5.43
2023-01-28T08:07:24.437Z,5.47
2023-01-28T08:08:27.807Z,5.25
2023-01-28T08:09:29.803Z,6.05
2023-01-28T08:10:32.785Z,5.88
2023-01-28T08:11:37.519Z,6.07
2023-01-28T08:12:40.613Z,5.82
2023-01-28T08:13:42.521Z,4.95
2023-01-28T08:14:46.789Z,5.70
2023-01-28T08:15:49.982Z,4.82
2023-01-28T08:16:51.933Z,5.25
2023-01-28T08:17:55.821Z,5.32
2023-01-28T08:18:58.034Z,6.60
2023-01-28T08:20:00.953Z,6.30
2023-01-28T08:21:02.993Z,5.57
2023-01-28T08:22:05.871Z,5.10
2023-01-28T08:23:08.836Z,4.25
2023-01-28T08:24:11.787Z,6.53
2023-01-28T08:25:14.168Z,5.68
2023-01-28T08:26:17.177Z,5.72
2023-01-28T08:27:19.353Z,5.38
2023-01-28T08:28:24.223Z,6.43
2023-01-28T08:29:26.153Z,5.68
2023-01-28T08:30:30.580Z,6.25
2023-01-28T08:31:32.565Z,5.35
2023-01-28T08:32:35.592Z,6.07
2023-01-28T08:33:37.767Z,5.38
2023-01-28T08:34:40.668Z,6.03
2023-01-28T08:35:43.598Z,6.32
2023-01-28T08:36:45.489Z,6.57
2023-01-28T08:37:48.407Z,5.97
2023-01-28T08:38:54.424Z,5.88
2023-01-28T08:39:56.327Z,6.60
2023-01-28T08:40:59.980Z,5.53
2023-01-28T08:42:01.977Z,6.13
2023-01-28T08:43:05.519Z,6.65
2023-01-28T08:44:08.420Z,6.80
2023-01-28T08:45:10.872Z,5.90
2023-01-28T08:46:15.194Z,7.28
2023-01-28T08:47:17.103Z,6.93
2023-01-28T08:48:21.800Z,7.30
2023-01-28T08:49:24.001Z,5.32
2023-01-28T08:50:29.478Z,6.28
2023-01-28T08:51:32.397Z,6.97
2023-01-28T08:52:34.309Z,7.38
2023-01-28T08:53:37.246Z,7.00
2023-01-28T08:54:39.167Z,7.60
2023-01-28T08:55:42.242Z,6.90
2023-01-28T08:56:44.914Z,6.60
2023-01-28T08:57:47.819Z,8.40
2023-01-28T08:58:49.809Z,7.70
2023-01-28T09:00:22.936Z,6.90
2023-01-28T09:01:29.312Z,7.03
2023-01-28T09:02:32.460Z,8.35
2023-01-28T09:03:36.266Z,7.25
2023-01-28T09:04:38.294Z,8.20
2023-01-28T09:05:41.334Z,7.65
2023-01-28T09:06:44.992Z,6.75
2023-01-28T09:07:47.337Z,7.57
2023-01-28T09:08:50.433Z,7.47
2023-01-28T09:09:52.409Z,7.03
2023-01-28T09:10:57.428Z,8.40
2023-01-28T09:11:59.388Z,7.60
2023-01-28T09:13:06.295Z,8.63
2023-01-28T09:14:09.240Z,8.57
2023-01-28T09:15:12.334Z,6.53
2023-01-28T09:16:15.342Z,7.15
2023-01-28T09:17:18.615Z,7.85
2023-01-28T09:18:21.663Z,7.95
2023-01-28T09:19:23.613Z,7.50
2023-01-28T09:20:27.082Z,7.93
2023-01-28T09:21:29.116Z,7.25
2023-01-28T09:22:32.087Z,7.35
2023-01-28T09:23:35.957Z,7.00
2023-01-28T09:24:39.138Z,7.53
2023-01-28T09:25:41.383Z,8.02
2023-01-28T09:26:44.535Z,8.02
2023-01-28T09:27:46.813Z,7.68
2023-01-28T09:28:49.786Z,7.43
2023-01-28T09:29:51.780Z,7.80
2023-01-28T09:30:54.820Z,7.47
2023-01-28T09:31:56.836Z,6.82
2023-01-28T09:33:01.233Z,7.25
2023-01-28T09:34:04.133Z,7.53
2023-01-28T09:35:06.791Z,7.30
2023-01-28T09:36:12.418Z,8.52
2023-01-28T09:37:14.756Z,8.18
2023-01-28T09:38:17.709Z,7.50
2023-01-28T09:39:20.680Z,8.27
2023-01-28T09:40:32.772Z,6.90
2023-01-28T09:41:46.714Z,7.45
2023-01-28T09:42:59.510Z,6.57
2023-01-28T09:44:13.699Z,6.50
2023-01-28T09:45:21.010Z,7.18
2023-01-28T09:46:31.313Z,7.15
2023-01-28T09:47:39.001Z,7.05
2023-01-28T09:48:45.133Z,7.25
2023-01-28T09:49:51.882Z,7.55
2023-01-28T09:50:54.950Z,7.25
2023-01-28T09:51:58.437Z,7.05
2023-01-28T09:53:05.703Z,6.63
2023-01-28T09:54:25.947Z,7.95
2023-01-28T09:55:34.207Z,6.90
2023-01-28T09:56:42.511Z,7.20
2023-01-28T09:57:48.757Z,7.80
2023-01-28T09:58:51.699Z,7.40
2023-01-28T09:59:53.673Z,7.60
2023-01-28T10:01:05.400Z,7.15
2023-01-28T10:02:27.144Z,7.95
2023-01-28T10:03:55.518Z,7.93
2023-01-28T10:05:12.070Z,7.28
2023-01-28T10:06:28.313Z,6.03
2023-01-28T10:07:39.510Z,7.75
2023-01-28T10:09:06.175Z,6.88
2023-01-28T10:10:14.056Z,6.53
2023-01-28T10:11:27.283Z,7.03
2023-01-28T10:12:45.454Z,6.43
2023-01-28T10:13:54.846Z,6.85
2023-01-28T10:15:12.010Z,6.72
2023-01-28T10:16:25.237Z,6.05
2023-01-28T10:17:31.190Z,6.85
2023-01-28T10:18:45.557Z,8.07
2023-01-28T10:19:53.746Z,7.57
2023-01-28T10:21:02.651Z,7.15
2023-01-28T10:22:09.803Z,7.00
2023-01-28T10:23:18.790Z,7.72
2023-01-28T10:24:30.422Z,6.43
2023-01-28T10:25:33.036Z,7.03
2023-01-28T10:26:38.698Z,6.18
2023-01-28T10:27:40.665Z,8.18
2023-01-28T10:28:44.298Z,7.30
2023-01-28T10:29:50.014Z,7.72
2023-01-28T10:30:52.586Z,7.05
2023-01-28T10:31:56.964Z,7.30
2023-01-28T10:33:03.445Z,7.85
2023-01-28T10:34:06.363Z,6.10
2023-01-28T10:35:10.068Z,7.22
2023-01-28T10:36:13.025Z,6.90
2023-01-28T10:37:16.077Z,7.20
2023-01-28T10:38:22.764Z,7.00
2023-01-28T10:39:26.623Z,7.13
2023-01-28T10:40:30.451Z,6.97
2023-01-28T10:41:34.206Z,6.57
2023-01-28T10:42:39.467Z,7.32
2023-01-28T10:43:42.498Z,7.88
2023-01-28T10:44:46.606Z,6.72
2023-01-28T10:45:58.674Z,7.45
2023-01-28T10:47:09.941Z,6.38
2023-01-28T10:48:19.778Z,7.07
2023-01-28T10:49:26.397Z,6.35
2023-01-28T10:50:31.485Z,6.50
2023-01-28T10:51:36.234Z,7.10
2023-01-28T10:52:39.133Z,6.65
2023-01-28T10:53:42.954Z,7.30
2023-01-28T10:54:45.915Z,7.80
2023-01-28T10:55:52.319Z,6.95
2023-01-28T10:56:58.787Z,7.03
2023-01-28T10:58:03.930Z,7.13
2023-01-28T10:59:21.441Z,7.13
2023-01-28T11:00:26.892Z,7.60
2023-01-28T11:01:45.485Z,7.95
2023-01-28T11:02:49.778Z,7.47
2023-01-28T11:03:58.074Z,7.78
2023-01-28T11:05:08.247Z,7.63
2023-01-28T11:06:25.230Z,7.25
2023-01-28T11:07:28.174Z,6.75
2023-01-28T11:08:31.295Z,7.30
2023-01-28T11:09:36.418Z,7.65
2023-01-28T11:10:38.533Z,8.70
2023-01-28T11:11:41.456Z,7.03
2023-01-28T11:12:44.408Z,7.97
2023-01-28T11:13:50.764Z,7.60
2023-01-28T11:14:55.724Z,7.10
2023-01-28T11:16:01.938Z,7.18
2023-01-28T11:17:04.947Z,7.30
2023-01-28T11:18:19.213Z,5.85
2023-01-28T11:19:26.373Z,6.45
2023-01-28T11:20:31.458Z,7.18
2023-01-28T11:21:36.843Z,6.55
2023-01-28T11:22:43.129Z,6.80
2023-01-28T11:23:52.496Z,7.47
2023-01-28T11:24:55.862Z,7.40
2023-01-28T11:26:05.391Z,7.03
2023-01-28T11:27:16.745Z,6.40
2023-01-28T11:28:22.391Z,7.45
2023-01-28T11:29:28.019Z,6.63
2023-01-28T11:30:34.014Z,7.47
2023-01-28T11:31:42.127Z,8.00
2023-01-28T11:32:45.110Z,6.90
2023-01-28T11:33:51.742Z,8.27
2023-01-28T11:34:58.362Z,8.00
2023-01-28T11:36:08.521Z,7.18
2023-01-28T11:37:16.274Z,7.38
2023-01-28T11:38:21.240Z,6.70
2023-01-28T11:39:27.517Z,6.97
2023-01-28T11:40:30.638Z,7.13
2023-01-28T11:41:34.987Z,9.02
2023-01-28T11:42:36.909Z,8.02
2023-01-28T11:43:39.813Z,7.65
2023-01-28T11:44:42.046Z,6.50
2023-01-28T11:45:51.203Z,7.60
2023-01-28T11:47:12.777Z,9.23
2023-01-28T11:48:32.061Z,7.47
2023-01-28T11:49:48.605Z,7.40
2023-01-28T11:50:58.243Z,7.72
2023-01-28T11:52:07.154Z,7.50
2023-01-28T11:53:26.181Z,6.57
2023-01-28T11:54:51.679Z,7.10
2023-01-28T11:56:07.513Z,7.32
2023-01-28T11:57:22.572Z,7.60
2023-01-28T11:58:36.328Z,7.28
2023-01-28T12:00:04.410Z,6.65
2023-01-28T12:01:10.169Z,6.07
2023-01-28T12:02:32.841Z,7.10
2023-01-28T12:03:45.319Z,6.07
2023-01-28T12:04:59.740Z,7.32
2023-01-28T12:06:21.549Z,8.00
2023-01-28T12:07:39.226Z,7.85
2023-01-28T12:08:49.007Z,6.13
2023-01-28T12:09:57.884Z,8.10
2023-01-28T12:11:21.273Z,6.88
2023-01-28T12:12:38.201Z,6.65
2023-01-28T12:13:54.400Z,7.78
2023-01-28T12:15:25.903Z,7.70
2023-01-28T12:16:52.193Z,7.57
2023-01-28T12:18:08.501Z,7.68
2023-01-28T12:19:27.648Z,6.30
2023-01-28T12:20:35.364Z,7.10
2023-01-28T12:21:53.163Z,7.13
2023-01-28T12:23:18.209Z,6.85
2023-01-28T12:24:38.350Z,7.45
2023-01-28T12:25:57.528Z,6.85
2023-01-28T12:27:07.078Z,7.13
2023-01-28T12:28:19.251Z,6.70
2023-01-28T12:29:34.410Z,7.18
2023-01-28T12:31:02.381Z,6.95
2023-01-28T12:32:23.095Z,5.78
2023-01-28T12:33:47.718Z,7.53
2023-01-28T12:35:25.651Z,5.97
2023-01-28T12:36:45.995Z,6.47
2023-01-28T12:38:01.540Z,5.55
2023-01-28T12:39:18.163Z,5.65
2023-01-28T12:40:41.031Z,6.25
2023-01-28T12:41:48.885Z,8.70
2023-01-28T12:42:54.078Z,7.90
2023-01-28T12:44:01.601Z,8.48
2023-01-28T12:45:16.297Z,11.18
2023-01-28T12:46:27.753Z,10.23
2023-01-28T12:47:35.717Z,10.77
2023-01-28T12:48:42.674Z,8.32
2023-01-28T12:49:48.851Z,7.95
2023-01-28T12:50:58.446Z,6.78
2023-01-28T12:52:05.684Z,7.13
2023-01-28T12:53:20.231Z,6.90
2023-01-28T12:54:29.700Z,6.32
2023-01-28T12:55:41.006Z,6.82
2023-01-28T12:56:48.581Z,7.65
2023-01-28T12:57:53.676Z,7.10
2023-01-28T12:59:00.152Z,6.53
2023-01-28T13:00:24.145Z,6.63
2023-01-28T13:01:30.896Z,7.47
2023-01-28T13:02:36.267Z,6.65
2023-01-28T13:03:46.908Z,5.97
2023-01-28T13:04:54.254Z,7.15
2023-01-28T13:06:00.874Z,6.60
2023-01-28T13:07:08.512Z,6.00
2023-01-28T13:08:16.272Z,6.63
2023-01-28T13:09:21.339Z,6.05
2023-01-28T13:10:27.767Z,7.22
2023-01-28T13:11:36.516Z,7.25
2023-01-28T13:12:40.335Z,6.97
2023-01-28T13:13:45.977Z,6.65
2023-01-28T13:14:52.629Z,6.45
2023-01-28T13:15:57.232Z,5.25
2023-01-28T13:17:11.112Z,4.95
2023-01-28T13:18:32.811Z,6.03
2023-01-28T13:19:39.381Z,5.80
2023-01-28T13:20:49.923Z,6.55
2023-01-28T13:21:53.209Z,6.95
2023-01-28T13:23:02.137Z,5.90
2023-01-28T13:24:19.862Z,5.07
2023-01-28T13:25:27.109Z,4.95
2023-01-28T13:26:37.915Z,5.55
2023-01-28T13:27:40.871Z,6.40
2023-01-28T13:28:42.820Z,6.35
2023-01-28T13:29:49.992Z,5.88
2023-01-28T13:30:53.484Z,5.10
2023-01-28T13:31:58.383Z,5.25
2023-01-28T13:33:03.277Z,4.57
2023-01-28T13:34:08.385Z,4.35
2023-01-28T13:35:36.337Z,5.45
2023-01-28T13:36:44.073Z,4.30
2023-01-28T13:37:48.522Z,4.70
2023-01-28T13:39:01.303Z,3.65
2023-01-28T13:40:10.194Z,5.35
2023-01-28T13:41:12.230Z,3.80
2023-01-28T13:42:27.705Z,4.80
2023-01-28T13:43:37.544Z,4.95
2023-01-28T13:44:40.545Z,4.50
2023-01-28T13:45:43.596Z,3.85
2023-01-28T13:46:45.918Z,4.00
2023-01-28T13:47:51.701Z,4.95
2023-01-28T13:48:58.557Z,5.15
2023-01-28T13:50:04.572Z,6.80
2023-01-28T13:51:17.503Z,4.75
2023-01-28T13:52:26.498Z,4.05
2023-01-28T13:53:41.096Z,4.47
2023-01-28T13:54:47.668Z,4.13
2023-01-28T13:55:55.055Z,2.97
2023-01-28T13:57:24.189Z,4.20
2023-01-28T13:58:52.986Z,4.10
2023-01-28T14:00:04.817Z,3.75
2023-01-28T14:01:32.548Z,4.03
2023-01-28T14:03:14.888Z,4.13
2023-01-28T14:04:35.115Z,4.85
2023-01-28T14:06:11.212Z,4.97
2023-01-28T14:07:27.688Z,4.38
2023-01-28T14:09:00.173Z,4.40
2023-01-28T14:10:38.699Z,4.28
2023-01-28T14:12:11.318Z,3.83
2023-01-28T14:13:55.955Z,4.75
2023-01-28T14:15:25.643Z,4.32
2023-01-28T14:16:37.909Z,6.50
2023-01-28T14:17:44.189Z,4.68
2023-01-28T14:18:48.574Z,4.22
2023-01-28T14:19:53.143Z,4.20
2023-01-28T14:21:01.612Z,4.07
2023-01-28T14:22:08.524Z,4.65
2023-01-28T14:23:17.732Z,4.28
2023-01-28T14:24:21.272Z,5.22
2023-01-28T14:25:33.097Z,5.43
2023-01-28T14:26:47.929Z,5.30
2023-01-28T14:27:53.768Z,4.82
2023-01-28T14:29:09.795Z,4.03
2023-01-28T14:30:21.092Z,3.78
2023-01-28T14:31:28.207Z,3.40
2023-01-28T14:32:32.692Z,4.85
2023-01-28T14:33:36.314Z,5.60
2023-01-28T14:34:39.428Z,6.25
2023-01-28T14:35:48.640Z,5.18
2023-01-28T14:36:52.955Z,6.18
2023-01-28T14:37:56.749Z,4.72
2023-01-28T14:38:58.781Z,3.80
2023-01-28T14:40:04.254Z,5.07
2023-01-28T14:41:07.533Z,3.53
2023-01-28T14:42:19.915Z,3.33
2023-01-28T14:43:24.979Z,4.85
2023-01-28T14:44:34.475Z,6.05
2023-01-28T14:45:53.679Z,5.45
2023-01-28T14:47:15.426Z,4.28
2023-01-28T14:48:26.583Z,4.05
2023-01-28T14:49:37.079Z,6.32